sensor_id;sensor_type;location;lat;lon;timestamp;P1;durP1;ratioP1;P2;durP2;ratioP2
43962;SDS011;29622;45.534;9.242;2023-07-20T00:01:16;13.75;;;4.60;;
43962;SDS011;29622;45.534;9.242;2023-07-20T00:06:17;16.15;;;5.50;;
43962;SDS011;29622;45.534;9.242;2023-07-20T00:11:18;11.98;;;4.97;;
43962;SDS011;29622;45.534;9.242;2023-07-20T00:16:19;10.80;;;4.45;;
43962;SDS011;29622;45.534;9.242;2023-07-20T00:21:19;16.88;;;5.28;;
43962;SDS011;29622;45.534;9.242;2023-07-20T00:26:20;8.20;;;3.05;;
43962;SDS011;29622;45.534;9.242;2023-07-20T00:31:21;10.32;;;4.53;;
43962;SDS011;29622;45.534;9.242;2023-07-20T00:36:22;11.93;;;4.70;;
43962;SDS011;29622;45.534;9.242;2023-07-20T00:41:22;11.18;;;4.32;;
43962;SDS011;29622;45.534;9.242;2023-07-20T00:46:23;8.68;;;4.05;;
43962;SDS011;29622;45.534;9.242;2023-07-20T00:51:25;8.43;;;4.40;;
43962;SDS011;29622;45.534;9.242;2023-07-20T00:56:26;9.25;;;3.78;;
43962;SDS011;29622;45.534;9.242;2023-07-20T01:01:27;10.85;;;4.30;;
43962;SDS011;29622;45.534;9.242;2023-07-20T01:12:05;11.10;;;5.07;;
43962;SDS011;29622;45.534;9.242;2023-07-20T01:17:09;9.05;;;3.80;;
43962;SDS011;29622;45.534;9.242;2023-07-20T01:22:36;10.65;;;3.53;;
43962;SDS011;29622;45.534;9.242;2023-07-20T01:33:07;6.70;;;3.25;;
43962;SDS011;29622;45.534;9.242;2023-07-20T01:38:09;12.48;;;4.28;;
43962;SDS011;29622;45.534;9.242;2023-07-20T01:43:11;7.22;;;3.22;;
43962;SDS011;29622;45.534;9.242;2023-07-20T01:48:12;8.75;;;4.15;;
43962;SDS011;29622;45.534;9.242;2023-07-20T01:53:13;9.13;;;3.10;;
43962;SDS011;29622;45.534;9.242;2023-07-20T01:58:14;7.63;;;3.28;;
43962;SDS011;29622;45.534;9.242;2023-07-20T02:03:15;10.77;;;4.03;;
43962;SDS011;29622;45.534;9.242;2023-07-20T02:08:16;15.63;;;4.70;;
43962;SDS011;29622;45.534;9.242;2023-07-20T02:13:18;9.82;;;5.10;;
43962;SDS011;29622;45.534;9.242;2023-07-20T02:18:19;14.35;;;4.90;;
43962;SDS011;29622;45.534;9.242;2023-07-20T02:23:19;8.45;;;3.75;;
43962;SDS011;29622;45.534;9.242;2023-07-20T02:28:20;10.30;;;4.32;;
43962;SDS011;29622;45.534;9.242;2023-07-20T02:33:21;12.23;;;5.07;;
43962;SDS011;29622;45.534;9.242;2023-07-20T02:38:22;13.25;;;5.25;;
43962;SDS011;29622;45.534;9.242;2023-07-20T02:43:22;12.48;;;4.60;;
43962;SDS011;29622;45.534;9.242;2023-07-20T02:48:23;23.40;;;7.55;;
43962;SDS011;29622;45.534;9.242;2023-07-20T02:53:23;12.88;;;6.95;;
43962;SDS011;29622;45.534;9.242;2023-07-20T02:58:24;19.52;;;7.22;;
43962;SDS011;29622;45.534;9.242;2023-07-20T03:03:25;12.35;;;6.28;;
43962;SDS011;29622;45.534;9.242;2023-07-20T03:08:25;15.93;;;5.57;;
43962;SDS011;29622;45.534;9.242;2023-07-20T03:13:26;9.98;;;6.15;;
43962;SDS011;29622;45.534;9.242;2023-07-20T03:18:27;15.35;;;6.68;;
43962;SDS011;29622;45.534;9.242;2023-07-20T03:23:28;13.65;;;7.50;;
43962;SDS011;29622;45.534;9.242;2023-07-20T03:28:29;15.93;;;6.40;;
43962;SDS011;29622;45.534;9.242;2023-07-20T03:33:31;15.18;;;7.22;;
43962;SDS011;29622;45.534;9.242;2023-07-20T03:38:33;17.40;;;7.97;;
43962;SDS011;29622;45.534;9.242;2023-07-20T03:43:33;15.45;;;6.63;;
43962;SDS011;29622;45.534;9.242;2023-07-20T03:48:34;20.77;;;6.30;;
43962;SDS011;29622;45.534;9.242;2023-07-20T03:53:35;16.90;;;7.50;;
43962;SDS011;29622;45.534;9.242;2023-07-20T03:58:35;17.58;;;9.30;;
43962;SDS011;29622;45.534;9.242;2023-07-20T04:03:37;14.20;;;6.97;;
43962;SDS011;29622;45.534;9.242;2023-07-20T04:08:37;13.20;;;6.28;;
43962;SDS011;29622;45.534;9.242;2023-07-20T04:13:38;11.55;;;5.72;;
43962;SDS011;29622;45.534;9.242;2023-07-20T04:18:39;8.15;;;4.90;;
43962;SDS011;29622;45.534;9.242;2023-07-20T04:23:39;16.58;;;7.00;;
43962;SDS011;29622;45.534;9.242;2023-07-20T04:28:41;13.23;;;5.93;;
43962;SDS011;29622;45.534;9.242;2023-07-20T04:33:47;14.23;;;7.60;;
43962;SDS011;29622;45.534;9.242;2023-07-20T04:38:48;17.13;;;7.28;;
43962;SDS011;29622;45.534;9.242;2023-07-20T04:43:53;15.13;;;7.57;;
43962;SDS011;29622;45.534;9.242;2023-07-20T04:49:01;12.07;;;7.30;;
43962;SDS011;29622;45.534;9.242;2023-07-20T04:54:04;11.88;;;6.03;;
43962;SDS011;29622;45.534;9.242;2023-07-20T04:59:09;13.80;;;6.85;;
43962;SDS011;29622;45.534;9.242;2023-07-20T05:04:10;21.08;;;9.23;;
43962;SDS011;29622;45.534;9.242;2023-07-20T05:09:11;24.08;;;8.40;;
43962;SDS011;29622;45.534;9.242;2023-07-20T05:14:11;14.32;;;8.52;;
43962;SDS011;29622;45.534;9.242;2023-07-20T05:19:12;16.35;;;7.72;;
43962;SDS011;29622;45.534;9.242;2023-07-20T05:24:13;16.95;;;8.05;;
43962;SDS011;29622;45.534;9.242;2023-07-20T05:29:14;17.23;;;8.57;;
43962;SDS011;29622;45.534;9.242;2023-07-20T05:34:15;17.38;;;7.22;;
43962;SDS011;29622;45.534;9.242;2023-07-20T05:39:16;18.65;;;8.25;;
43962;SDS011;29622;45.534;9.242;2023-07-20T05:44:18;18.38;;;9.32;;
43962;SDS011;29622;45.534;9.242;2023-07-20T05:49:18;14.00;;;7.22;;
43962;SDS011;29622;45.534;9.242;2023-07-20T05:54:19;14.20;;;7.30;;
43962;SDS011;29622;45.534;9.242;2023-07-20T05:59:20;8.93;;;4.55;;
43962;SDS011;29622;45.534;9.242;2023-07-20T06:04:21;6.40;;;4.03;;
43962;SDS011;29622;45.534;9.242;2023-07-20T06:09:21;13.52;;;6.50;;
43962;SDS011;29622;45.534;9.242;2023-07-20T06:14:22;13.93;;;7.22;;
43962;SDS011;29622;45.534;9.242;2023-07-20T06:19:23;17.55;;;7.22;;
43962;SDS011;29622;45.534;9.242;2023-07-20T06:24:23;17.70;;;8.32;;
43962;SDS011;29622;45.534;9.242;2023-07-20T06:29:24;11.70;;;7.32;;
43962;SDS011;29622;45.534;9.242;2023-07-20T06:34:25;11.18;;;5.95;;
43962;SDS011;29622;45.534;9.242;2023-07-20T06:39:25;16.35;;;6.97;;
43962;SDS011;29622;45.534;9.242;2023-07-20T06:44:26;16.45;;;7.00;;
43962;SDS011;29622;45.534;9.242;2023-07-20T06:49:27;14.73;;;7.38;;
43962;SDS011;29622;45.534;9.242;2023-07-20T06:54:28;8.80;;;4.50;;
43962;SDS011;29622;45.534;9.242;2023-07-20T06:59:29;17.23;;;7.68;;
43962;SDS011;29622;45.534;9.242;2023-07-20T07:04:29;14.88;;;6.85;;
43962;SDS011;29622;45.534;9.242;2023-07-20T07:09:30;17.92;;;7.75;;
43962;SDS011;29622;45.534;9.242;2023-07-20T07:14:31;17.35;;;7.53;;
43962;SDS011;29622;45.534;9.242;2023-07-20T07:19:31;21.25;;;7.30;;
43962;SDS011;29622;45.534;9.242;2023-07-20T07:24:32;15.98;;;6.80;;
43962;SDS011;29622;45.534;9.242;2023-07-20T07:29:34;15.07;;;7.47;;
43962;SDS011;29622;45.534;9.242;2023-07-20T07:34:34;13.32;;;6.60;;
43962;SDS011;29622;45.534;9.242;2023-07-20T07:39:35;13.93;;;6.05;;
43962;SDS011;29622;45.534;9.242;2023-07-20T07:44:35;17.70;;;6.50;;
43962;SDS011;29622;45.534;9.242;2023-07-20T07:49:36;21.70;;;7.03;;
43962;SDS011;29622;45.534;9.242;2023-07-20T08:00:03;17.92;;;5.72;;
43962;SDS011;29622;45.534;9.242;2023-07-20T08:05:05;14.00;;;6.07;;
43962;SDS011;29622;45.534;9.242;2023-07-20T08:10:06;27.67;;;6.28;;
43962;SDS011;29622;45.534;9.242;2023-07-20T08:15:07;16.25;;;6.18;;
43962;SDS011;29622;45.534;9.242;2023-07-20T08:20:12;11.57;;;5.72;;
43962;SDS011;29622;45.534;9.242;2023-07-20T08:25:13;10.48;;;3.53;;
43962;SDS011;29622;45.534;9.242;2023-07-20T08:30:14;14.32;;;5.38;;
43962;SDS011;29622;45.534;9.242;2023-07-20T08:35:14;18.05;;;6.32;;
43962;SDS011;29622;45.534;9.242;2023-07-20T08:40:15;19.05;;;6.60;;
43962;SDS011;29622;45.534;9.242;2023-07-20T08:45:16;12.63;;;5.65;;
43962;SDS011;29622;45.534;9.242;2023-07-20T08:50:18;12.73;;;4.75;;
43962;SDS011;29622;45.534;9.242;2023-07-20T08:55:20;11.68;;;5.63;;
43962;SDS011;29622;45.534;9.242;2023-07-20T09:00:23;17.90;;;6.30;;
43962;SDS011;29622;45.534;9.242;2023-07-20T09:05:24;12.40;;;4.88;;
43962;SDS011;29622;45.534;9.242;2023-07-20T09:10:25;15.38;;;6.07;;
43962;SDS011;29622;45.534;9.242;2023-07-20T09:15:25;6.57;;;3.75;;
43962;SDS011;29622;45.534;9.242;2023-07-20T09:20:26;10.35;;;4.68;;
43962;SDS011;29622;45.534;9.242;2023-07-20T09:25:30;13.73;;;5.57;;
43962;SDS011;29622;45.534;9.242;2023-07-20T09:30:31;10.50;;;5.82;;
43962;SDS011;29622;45.534;9.242;2023-07-20T09:35:32;13.23;;;6.43;;
43962;SDS011;29622;45.534;9.242;2023-07-20T09:40:37;12.63;;;6.10;;
43962;SDS011;29622;45.534;9.242;2023-07-20T09:45:39;21.83;;;6.97;;
43962;SDS011;29622;45.534;9.242;2023-07-20T09:50:42;10.88;;;5.40;;
43962;SDS011;29622;45.534;9.242;2023-07-20T09:55:48;18.03;;;5.00;;
43962;SDS011;29622;45.534;9.242;2023-07-20T10:00:49;10.90;;;5.45;;
43962;SDS011;29622;45.534;9.242;2023-07-20T10:05:54;5.47;;;2.95;;
43962;SDS011;29622;45.534;9.242;2023-07-20T10:10:57;15.02;;;5.25;;
43962;SDS011;29622;45.534;9.242;2023-07-20T10:16:07;9.52;;;3.75;;
43962;SDS011;29622;45.534;9.242;2023-07-20T10:21:19;12.95;;;5.65;;
43962;SDS011;29622;45.534;9.242;2023-07-20T10:26:22;9.60;;;4.95;;
43962;SDS011;29622;45.534;9.242;2023-07-20T10:31:24;6.32;;;3.50;;
43962;SDS011;29622;45.534;9.242;2023-07-20T10:36:29;10.63;;;4.13;;
43962;SDS011;29622;45.534;9.242;2023-07-20T10:41:32;7.60;;;3.75;;
43962;SDS011;29622;45.534;9.242;2023-07-20T10:46:44;9.38;;;4.40;;
43962;SDS011;29622;45.534;9.242;2023-07-20T10:51:46;10.55;;;5.22;;
43962;SDS011;29622;45.534;9.242;2023-07-20T10:56:48;7.30;;;3.92;;
43962;SDS011;29622;45.534;9.242;2023-07-20T11:01:56;15.27;;;6.72;;
43962;SDS011;29622;45.534;9.242;2023-07-20T11:07:01;8.05;;;4.63;;
43962;SDS011;29622;45.534;9.242;2023-07-20T11:12:14;11.98;;;4.15;;
43962;SDS011;29622;45.534;9.242;2023-07-20T11:17:17;10.13;;;4.88;;
43962;SDS011;29622;45.534;9.242;2023-07-20T11:22:22;8.27;;;5.20;;
43962;SDS011;29622;45.534;9.242;2023-07-20T11:27:22;6.15;;;3.60;;
43962;SDS011;29622;45.534;9.242;2023-07-20T11:32:23;9.60;;;4.53;;
43962;SDS011;29622;45.534;9.242;2023-07-20T11:37:24;9.10;;;4.97;;
43962;SDS011;29622;45.534;9.242;2023-07-20T11:42:25;15.40;;;6.03;;
43962;SDS011;29622;45.534;9.242;2023-07-20T11:47:28;12.75;;;5.10;;
43962;SDS011;29622;45.534;9.242;2023-07-20T11:52:29;7.47;;;4.13;;
43962;SDS011;29622;45.534;9.242;2023-07-20T11:57:31;14.07;;;6.13;;
43962;SDS011;29622;45.534;9.242;2023-07-20T12:02:32;9.70;;;5.30;;
43962;SDS011;29622;45.534;9.242;2023-07-20T12:07:34;6.78;;;3.42;;
43962;SDS011;29622;45.534;9.242;2023-07-20T12:12:40;10.98;;;4.07;;
43962;SDS011;29622;45.534;9.242;2023-07-20T12:17:45;11.90;;;5.18;;
43962;SDS011;29622;45.534;9.242;2023-07-20T12:22:48;8.43;;;4.63;;
43962;SDS011;29622;45.534;9.242;2023-07-20T12:27:49;6.85;;;4.28;;
43962;SDS011;29622;45.534;9.242;2023-07-20T12:32:50;9.75;;;4.70;;
43962;SDS011;29622;45.534;9.242;2023-07-20T12:37:50;11.05;;;4.82;;
43962;SDS011;29622;45.534;9.242;2023-07-20T12:42:51;13.52;;;5.25;;
43962;SDS011;29622;45.534;9.242;2023-07-20T12:47:52;8.93;;;5.00;;
43962;SDS011;29622;45.534;9.242;2023-07-20T12:52:53;4.70;;;3.72;;
43962;SDS011;29622;45.534;9.242;2023-07-20T12:57:54;10.15;;;3.75;;
43962;SDS011;29622;45.534;9.242;2023-07-20T13:02:55;6.95;;;3.42;;
43962;SDS011;29622;45.534;9.242;2023-07-20T13:07:55;10.73;;;4.28;;
43962;SDS011;29622;45.534;9.242;2023-07-20T13:12:56;6.82;;;3.55;;
43962;SDS011;29622;45.534;9.242;2023-07-20T13:17:57;7.25;;;3.78;;
43962;SDS011;29622;45.534;9.242;2023-07-20T13:22:59;9.50;;;4.70;;
43962;SDS011;29622;45.534;9.242;2023-07-20T13:27:59;10.10;;;4.63;;
43962;SDS011;29622;45.534;9.242;2023-07-20T13:33:00;6.82;;;3.60;;
43962;SDS011;29622;45.534;9.242;2023-07-20T13:38:00;8.07;;;5.13;;
43962;SDS011;29622;45.534;9.242;2023-07-20T13:43:01;10.07;;;4.50;;
43962;SDS011;29622;45.534;9.242;2023-07-20T13:48:02;8.50;;;4.68;;
43962;SDS011;29622;45.534;9.242;2023-07-20T13:53:02;7.10;;;4.28;;
43962;SDS011;29622;45.534;9.242;2023-07-20T13:58:03;6.05;;;3.15;;
43962;SDS011;29622;45.534;9.242;2023-07-20T14:03:03;6.50;;;3.53;;
43962;SDS011;29622;45.534;9.242;2023-07-20T14:08:04;6.35;;;3.92;;
43962;SDS011;29622;45.534;9.242;2023-07-20T14:13:05;5.57;;;3.17;;
43962;SDS011;29622;45.534;9.242;2023-07-20T14:18:06;11.20;;;4.18;;
43962;SDS011;29622;45.534;9.242;2023-07-20T14:23:06;8.98;;;5.13;;
43962;SDS011;29622;45.534;9.242;2023-07-20T14:28:07;11.90;;;4.22;;
43962;SDS011;29622;45.534;9.242;2023-07-20T14:33:08;6.82;;;3.45;;
43962;SDS011;29622;45.534;9.242;2023-07-20T14:38:08;8.98;;;3.88;;
43962;SDS011;29622;45.534;9.242;2023-07-20T14:43:10;10.25;;;4.72;;
43962;SDS011;29622;45.534;9.242;2023-07-20T14:48:10;10.30;;;5.95;;
43962;SDS011;29622;45.534;9.242;2023-07-20T14:53:12;8.85;;;3.75;;
43962;SDS011;29622;45.534;9.242;2023-07-20T14:58:13;11.73;;;4.93;;
43962;SDS011;29622;45.534;9.242;2023-07-20T15:03:14;6.25;;;3.67;;
43962;SDS011;29622;45.534;9.242;2023-07-20T15:08:14;9.07;;;3.53;;
43962;SDS011;29622;45.534;9.242;2023-07-20T15:13:15;5.60;;;3.58;;
43962;SDS011;29622;45.534;9.242;2023-07-20T15:18:15;9.57;;;3.53;;
43962;SDS011;29622;45.534;9.242;2023-07-20T15:23:16;8.13;;;3.75;;
43962;SDS011;29622;45.534;9.242;2023-07-20T15:28:17;5.72;;;3.22;;
43962;SDS011;29622;45.534;9.242;2023-07-20T15:33:17;6.22;;;3.38;;
43962;SDS011;29622;45.534;9.242;2023-07-20T15:38:18;5.60;;;3.75;;
43962;SDS011;29622;45.534;9.242;2023-07-20T15:43:19;5.78;;;3.20;;
43962;SDS011;29622;45.534;9.242;2023-07-20T15:48:20;10.50;;;4.53;;
43962;SDS011;29622;45.534;9.242;2023-07-20T15:53:20;23.17;;;4.40;;
43962;SDS011;29622;45.534;9.242;2023-07-20T15:58:21;5.95;;;3.13;;
43962;SDS011;29622;45.534;9.242;2023-07-20T16:03:22;8.77;;;4.55;;
43962;SDS011;29622;45.534;9.242;2023-07-20T16:08:26;5.15;;;3.40;;
43962;SDS011;29622;45.534;9.242;2023-07-20T16:13:26;8.02;;;4.07;;
43962;SDS011;29622;45.534;9.242;2023-07-20T16:18:27;9.70;;;3.83;;
43962;SDS011;29622;45.534;9.242;2023-07-20T16:23:29;9.73;;;4.82;;
43962;SDS011;29622;45.534;9.242;2023-07-20T16:28:30;8.60;;;4.50;;
43962;SDS011;29622;45.534;9.242;2023-07-20T16:33:30;14.25;;;4.75;;
43962;SDS011;29622;45.534;9.242;2023-07-20T16:38:31;12.43;;;4.93;;
43962;SDS011;29622;45.534;9.242;2023-07-20T16:43:31;9.52;;;4.07;;
43962;SDS011;29622;45.534;9.242;2023-07-20T16:48:32;11.20;;;5.45;;
43962;SDS011;29622;45.534;9.242;2023-07-20T16:53:33;7.07;;;3.03;;
43962;SDS011;29622;45.534;9.242;2023-07-20T16:58:34;12.65;;;4.28;;
43962;SDS011;29622;45.534;9.242;2023-07-20T17:03:35;4.65;;;3.20;;
43962;SDS011;29622;45.534;9.242;2023-07-20T17:08:36;6.15;;;3.00;;
43962;SDS011;29622;45.534;9.242;2023-07-20T17:13:37;7.75;;;3.40;;
43962;SDS011;29622;45.534;9.242;2023-07-20T17:18:39;6.90;;;3.88;;
43962;SDS011;29622;45.534;9.242;2023-07-20T17:23:39;8.60;;;4.57;;
43962;SDS011;29622;45.534;9.242;2023-07-20T17:28:40;7.88;;;3.40;;
43962;SDS011;29622;45.534;9.242;2023-07-20T17:33:40;10.20;;;5.05;;
43962;SDS011;29622;45.534;9.242;2023-07-20T17:38:41;10.05;;;5.40;;
43962;SDS011;29622;45.534;9.242;2023-07-20T17:43:42;8.05;;;4.05;;
43962;SDS011;29622;45.534;9.242;2023-07-20T17:48:42;4.43;;;2.88;;
43962;SDS011;29622;45.534;9.242;2023-07-20T17:53:43;12.65;;;4.38;;
43962;SDS011;29622;45.534;9.242;2023-07-20T17:58:43;7.70;;;3.58;;
43962;SDS011;29622;45.534;9.242;2023-07-20T18:03:44;9.82;;;3.90;;
43962;SDS011;29622;45.534;9.242;2023-07-20T18:08:45;6.88;;;3.33;;
43962;SDS011;29622;45.534;9.242;2023-07-20T18:13:45;17.63;;;4.85;;
43962;SDS011;29622;45.534;9.242;2023-07-20T18:18:47;13.98;;;5.07;;
43962;SDS011;29622;45.534;9.242;2023-07-20T18:23:48;12.00;;;5.28;;
43962;SDS011;29622;45.534;9.242;2023-07-20T18:28:51;7.75;;;3.53;;
43962;SDS011;29622;45.534;9.242;2023-07-20T18:33:53;6.97;;;3.75;;
43962;SDS011;29622;45.534;9.242;2023-07-20T18:38:54;10.93;;;3.78;;
43962;SDS011;29622;45.534;9.242;2023-07-20T18:43:55;16.08;;;6.13;;
43962;SDS011;29622;45.534;9.242;2023-07-20T18:48:55;18.40;;;6.63;;
43962;SDS011;29622;45.534;9.242;2023-07-20T18:53:56;12.15;;;7.22;;
43962;SDS011;29622;45.534;9.242;2023-07-20T18:58:56;8.65;;;4.50;;
43962;SDS011;29622;45.534;9.242;2023-07-20T19:03:57;13.70;;;5.50;;
43962;SDS011;29622;45.534;9.242;2023-07-20T19:08:58;19.58;;;6.85;;
43962;SDS011;29622;45.534;9.242;2023-07-20T19:13:58;16.45;;;6.70;;
43962;SDS011;29622;45.534;9.242;2023-07-20T19:18:59;17.80;;;7.68;;
43962;SDS011;29622;45.534;9.242;2023-07-20T19:23:59;13.85;;;6.30;;
43962;SDS011;29622;45.534;9.242;2023-07-20T19:29:00;20.73;;;6.55;;
43962;SDS011;29622;45.534;9.242;2023-07-20T19:34:01;13.02;;;4.95;;
43962;SDS011;29622;45.534;9.242;2023-07-20T19:39:02;7.25;;;4.50;;
43962;SDS011;29622;45.534;9.242;2023-07-20T19:44:03;8.88;;;5.00;;
43962;SDS011;29622;45.534;9.242;2023-07-20T19:49:04;14.43;;;5.85;;
43962;SDS011;29622;45.534;9.242;2023-07-20T19:54:05;8.13;;;3.85;;
43962;SDS011;29622;45.534;9.242;2023-07-20T19:59:06;7.97;;;4.43;;
43962;SDS011;29622;45.534;9.242;2023-07-20T20:04:06;6.70;;;4.30;;
43962;SDS011;29622;45.534;9.242;2023-07-20T20:09:07;11.85;;;4.05;;
43962;SDS011;29622;45.534;9.242;2023-07-20T20:14:08;9.00;;;5.00;;
43962;SDS011;29622;45.534;9.242;2023-07-20T20:19:10;9.90;;;5.07;;
43962;SDS011;29622;45.534;9.242;2023-07-20T20:24:10;12.32;;;4.88;;
43962;SDS011;29622;45.534;9.242;2023-07-20T20:29:11;10.82;;;5.35;;
43962;SDS011;29622;45.534;9.242;2023-07-20T20:34:12;11.82;;;4.60;;
43962;SDS011;29622;45.534;9.242;2023-07-20T20:39:12;8.82;;;4.75;;
43962;SDS011;29622;45.534;9.242;2023-07-20T20:44:13;10.45;;;4.97;;
43962;SDS011;29622;45.534;9.242;2023-07-20T20:49:17;11.30;;;4.15;;
43962;SDS011;29622;45.534;9.242;2023-07-20T20:54:18;8.27;;;4.35;;
43962;SDS011;29622;45.534;9.242;2023-07-20T20:59:19;9.55;;;4.40;;
43962;SDS011;29622;45.534;9.242;2023-07-20T21:04:19;11.98;;;5.15;;
43962;SDS011;29622;45.534;9.242;2023-07-20T21:09:20;9.90;;;5.45;;
43962;SDS011;29622;45.534;9.242;2023-07-20T21:14:21;12.40;;;5.32;;
43962;SDS011;29622;45.534;9.242;2023-07-20T21:19:23;22.48;;;7.22;;
43962;SDS011;29622;45.534;9.242;2023-07-20T21:24:23;13.80;;;6.13;;
43962;SDS011;29622;45.534;9.242;2023-07-20T21:29:24;11.82;;;4.57;;
43962;SDS011;29622;45.534;9.242;2023-07-20T21:34:25;8.52;;;5.30;;
43962;SDS011;29622;45.534;9.242;2023-07-20T21:39:25;9.63;;;5.00;;
43962;SDS011;29622;45.534;9.242;2023-07-20T21:44:26;8.60;;;4.78;;
43962;SDS011;29622;45.534;9.242;2023-07-20T21:49:27;10.82;;;5.38;;
43962;SDS011;29622;45.534;9.242;2023-07-20T21:54:27;8.20;;;5.22;;
43962;SDS011;29622;45.534;9.242;2023-07-20T21:59:28;18.02;;;5.75;;
43962;SDS011;29622;45.534;9.242;2023-07-20T22:04:28;9.68;;;4.93;;
43962;SDS011;29622;45.534;9.242;2023-07-20T22:09:29;13.13;;;5.95;;
43962;SDS011;29622;45.534;9.242;2023-07-20T22:14:30;12.13;;;4.65;;
43962;SDS011;29622;45.534;9.242;2023-07-20T22:19:30;13.32;;;6.50;;
43962;SDS011;29622;45.534;9.242;2023-07-20T22:24:32;21.73;;;6.15;;
43962;SDS011;29622;45.534;9.242;2023-07-20T22:29:33;10.50;;;5.18;;
43962;SDS011;29622;45.534;9.242;2023-07-20T22:34:35;14.90;;;6.60;;
43962;SDS011;29622;45.534;9.242;2023-07-20T22:39:36;9.32;;;4.63;;
43962;SDS011;29622;45.534;9.242;2023-07-20T22:44:37;10.40;;;4.85;;
43962;SDS011;29622;45.534;9.242;2023-07-20T22:49:37;13.93;;;5.22;;
43962;SDS011;29622;45.534;9.242;2023-07-20T22:54:38;6.80;;;3.92;;
43962;SDS011;29622;45.534;9.242;2023-07-20T22:59:38;8.52;;;4.18;;
43962;SDS011;29622;45.534;9.242;2023-07-20T23:04:39;15.57;;;6.40;;
43962;SDS011;29622;45.534;9.242;2023-07-20T23:09:42;7.80;;;4.40;;
43962;SDS011;29622;45.534;9.242;2023-07-20T23:14:43;9.23;;;5.18;;
43962;SDS011;29622;45.534;9.242;2023-07-20T23:19:44;9.95;;;4.75;;
43962;SDS011;29622;45.534;9.242;2023-07-20T23:24:45;9.68;;;5.22;;
43962;SDS011;29622;45.534;9.242;2023-07-20T23:29:46;9.73;;;4.82;;
43962;SDS011;29622;45.534;9.242;2023-07-20T23:34:46;7.90;;;4.43;;
43962;SDS011;29622;45.534;9.242;2023-07-20T23:39:47;4.97;;;3.10;;
43962;SDS011;29622;45.534;9.242;2023-07-20T23:44:49;16.13;;;5.55;;
43962;SDS011;29622;45.534;9.242;2023-07-20T23:49:50;13.82;;;5.10;;
43962;SDS011;29622;45.534;9.242;2023-07-20T23:54:51;9.00;;;5.07;;
43962;SDS011;29622;45.534;9.242;2023-07-20T23:59:51;13.00;;;5.03;;
